Time;durP1;ratioP1;P1;durP2;ratioP2;P2;SDS_P1;SDS_P2;PMS_P1;PMS_P2;Temp;Humidity;BMP_temperature;BMP_pressure;BME280_temperature;BME280_humidity;BME280_pressure;Samples;Min_cycle;Max_cycle;Signal;HPM_P1;HPM_P2
2022/01/10 00:01:28;;;;;;;3.25;1.88;;;;;;;12.93;56.13;101924.22;4973323;28;20531;-84
2022/01/10 00:03:58;;;;;;;3.75;2.22;;;;;;;12.86;56.71;101922.22;4972169;28;20145;-82
2022/01/10 00:06:27;;;;;;;5.25;1.98;;;;;;;12.80;57.02;101920.25;4960945;28;20052;-82
2022/01/10 00:08:55;;;;;;;5.95;2.20;;;;;;;12.75;56.54;101909.69;4957748;28;20047;-86
2022/01/10 00:11:24;;;;;;;4.35;2.05;;;;;;;12.68;57.54;101915.47;4952734;28;20051;-83
2022/01/10 00:13:52;;;;;;;5.93;2.85;;;;;;;12.64;57.55;101910.09;4939763;29;20107;-82
2022/01/10 00:16:21;;;;;;;3.63;2.03;;;;;;;12.58;58.39;101919.44;4939771;29;20085;-86
2022/01/10 00:18:50;;;;;;;3.97;1.90;;;;;;;12.52;62.18;101918.28;4952562;29;20048;-81
2022/01/10 00:21:21;;;;;;;3.60;1.60;;;;;;;12.43;62.87;101917.94;4952299;28;20053;-85
2022/01/10 00:23:49;;;;;;;4.53;1.52;;;;;;;12.32;62.37;101926.19;4952286;28;20065;-82
2022/01/10 00:26:18;;;;;;;5.55;1.83;;;;;;;12.24;62.85;101924.97;4955590;28;20043;-81
2022/01/10 00:28:46;;;;;;;4.78;1.77;;;;;;;12.12;62.38;101929.66;4952630;29;20489;-84
2022/01/10 00:31:15;;;;;;;2.72;1.52;;;;;;;12.06;64.51;101937.16;4953984;28;20382;-82
2022/01/10 00:33:44;;;;;;;3.83;1.60;;;;;;;11.91;64.52;101933.09;4958284;28;20051;-82
2022/01/10 00:36:12;;;;;;;2.40;1.58;;;;;;;11.73;65.99;101933.16;4952282;29;20047;-80
2022/01/10 00:38:42;;;;;;;2.83;1.48;;;;;;;11.52;69.03;101930.53;4946230;28;20055;-83
2022/01/10 00:41:11;;;;;;;3.20;1.73;;;;;;;11.28;71.08;101932.88;4955778;28;20513;-80
2022/01/10 00:43:45;;;;;;;2.95;1.35;;;;;;;11.17;74.39;101936.69;4955431;29;20051;-82
2022/01/10 00:46:15;;;;;;;3.30;2.22;;;;;;;11.06;71.96;101946.56;4955755;29;20051;-84
2022/01/10 00:48:43;;;;;;;4.38;1.88;;;;;;;10.89;71.61;101937.13;4955743;28;20176;-82
2022/01/10 00:51:12;;;;;;;5.22;1.80;;;;;;;10.77;72.27;101946.91;4954588;28;20047;-82
2022/01/10 00:53:44;;;;;;;3.45;1.52;;;;;;;10.63;72.39;101947.13;4954403;28;20103;-82
2022/01/10 00:56:12;;;;;;;3.38;2.03;;;;;;;10.53;74.01;101947.47;4955263;28;20119;-82
2022/01/10 00:58:41;;;;;;;3.10;1.60;;;;;;;10.44;77.15;101941.84;4954898;28;20047;-81
2022/01/10 01:01:09;;;;;;;4.75;1.88;;;;;;;10.36;76.13;101941.47;4954954;28;20044;-85
2022/01/10 01:03:38;;;;;;;4.80;2.30;;;;;;;10.29;76.92;101951.47;4957576;28;20134;-87
2022/01/10 01:06:07;;;;;;;2.97;1.60;;;;;;;10.21;76.70;101951.91;4980374;28;20066;-87
2022/01/10 01:08:35;;;;;;;4.13;1.35;;;;;;;10.14;76.48;101959.28;4980545;28;20046;-87
2022/01/10 01:13:54;;;;;;;2.40;1.45;;;;;;;9.98;76.21;101960.22;4962536;28;20059;-84
2022/01/10 01:16:43;;;;;;;4.85;1.70;;;;;;;9.93;75.60;101959.09;4962102;28;20074;-83
2022/01/10 01:24:40;;;;;;;2.42;1.67;;;;;;;9.58;76.07;101955.56;4977401;28;20058;-82
2022/01/10 01:27:10;;;;;;;3.35;1.38;;;;;;;9.49;77.53;101952.50;4975080;28;20039;-83
2022/01/10 01:29:39;;;;;;;6.70;1.75;;;;;;;9.35;78.56;101952.66;4974619;28;20047;-84
2022/01/10 01:32:08;;;;;;;3.40;1.50;;;;;;;9.26;79.99;101949.56;4973844;28;20058;-83
2022/01/10 01:34:37;;;;;;;2.67;2.22;;;;;;;9.17;77.76;101951.66;4974686;28;20082;-80
2022/01/10 01:37:06;;;;;;;4.72;2.03;;;;;;;9.07;76.93;101951.94;4974282;28;20149;-79
2022/01/10 01:39:35;;;;;;;5.30;2.65;;;;;;;9.01;77.80;101947.34;4974191;28;20058;-78
2022/01/10 01:42:17;;;;;;;4.63;2.88;;;;;;;8.95;76.86;101962.50;4973693;28;20051;-79
2022/01/10 01:44:55;;;;;;;5.30;2.93;;;;;;;8.83;77.14;101961.81;4974275;28;20133;-82
2022/01/10 01:47:23;;;;;;;7.20;2.67;;;;;;;8.75;76.51;101963.94;4974088;28;20905;-82
2022/01/10 01:49:52;;;;;;;5.18;3.10;;;;;;;8.71;76.20;101962.03;4973880;28;20089;-85
2022/01/10 01:52:20;;;;;;;8.32;2.78;;;;;;;8.63;76.99;101953.84;4972932;28;20077;-82
2022/01/10 01:54:49;;;;;;;3.40;2.20;;;;;;;8.52;76.53;101955.81;4973522;28;20087;-80
2022/01/10 01:57:17;;;;;;;3.80;2.35;;;;;;;8.38;78.28;101955.00;4973018;28;20138;-84
2022/01/10 01:59:46;;;;;;;6.40;2.53;;;;;;;8.31;78.78;101964.84;4973299;28;20098;-86
2022/01/10 02:02:16;;;;;;;3.72;2.30;;;;;;;8.28;79.73;101960.41;4972638;28;20500;-83
2022/01/10 02:04:45;;;;;;;5.20;2.50;;;;;;;8.23;78.60;101956.69;4974842;28;20464;-80
2022/01/10 02:07:14;;;;;;;2.92;1.85;;;;;;;8.20;80.00;101956.53;4972627;28;20091;-80
2022/01/10 02:09:42;;;;;;;3.90;2.13;;;;;;;8.14;80.24;101953.56;4976929;28;20089;-86
2022/01/10 02:12:11;;;;;;;3.13;1.83;;;;;;;8.09;80.27;101947.28;4960153;28;20051;-86
2022/01/10 02:14:40;;;;;;;2.60;1.67;;;;;;;8.02;80.23;101943.44;4972882;28;20070;-79
2022/01/10 02:17:09;;;;;;;4.47;2.22;;;;;;;7.95;79.60;101954.19;4972874;28;20130;-81
2022/01/10 02:19:39;;;;;;;4.28;2.13;;;;;;;7.86;78.95;101951.94;4979883;28;20066;-82
2022/01/10 02:22:09;;;;;;;3.65;2.20;;;;;;;7.78;77.30;101949.72;4975314;28;20050;-82
2022/01/10 02:24:38;;;;;;;4.05;2.15;;;;;;;7.72;75.98;101956.28;4977842;28;20074;-84
2022/01/10 02:27:07;;;;;;;2.58;1.60;;;;;;;7.71;75.28;101958.75;4979230;28;20500;-83
2022/01/10 02:29:36;;;;;;;5.55;1.48;;;;;;;7.69;74.35;101971.53;4975440;28;20485;-85
2022/01/10 02:32:05;;;;;;;2.67;1.35;;;;;;;7.67;73.04;101965.41;4975561;28;20053;-86
2022/01/10 02:34:34;;;;;;;3.47;0.85;;;;;;;7.65;73.17;101969.59;4974897;28;20508;-86
2022/01/10 02:37:02;;;;;;;1.98;1.30;;;;;;;7.62;72.72;101968.50;4974148;28;20046;-87
2022/01/10 02:39:32;;;;;;;1.95;1.45;;;;;;;7.58;75.47;101962.25;4974904;28;20051;-87
2022/01/10 02:42:01;;;;;;;4.97;1.23;;;;;;;7.55;72.37;101967.22;4973947;28;20046;-84
2022/01/10 02:44:36;;;;;;;3.08;1.13;;;;;;;7.52;72.42;101967.06;4974149;28;20050;-86
2022/01/10 02:47:05;;;;;;;2.42;1.08;;;;;;;7.47;72.19;101960.75;4978916;28;20051;-87
2022/01/10 02:49:34;;;;;;;2.72;1.15;;;;;;;7.44;74.85;101957.97;4977871;28;20321;-88
2022/01/10 02:52:03;;;;;;;1.38;0.68;;;;;;;7.37;72.46;101948.97;4973394;28;20074;-86
2022/01/10 02:54:33;;;;;;;2.15;1.27;;;;;;;7.35;71.34;101953.13;4975286;28;20331;-86
2022/01/10 02:57:02;;;;;;;2.63;1.00;;;;;;;7.32;74.12;101956.41;4972487;28;20468;-85
2022/01/10 02:59:30;;;;;;;2.22;1.08;;;;;;;7.31;73.20;101956.34;4972974;28;20047;-87
2022/01/10 03:01:59;;;;;;;2.63;1.48;;;;;;;7.26;70.83;101952.56;4977133;28;20054;-87
2022/01/10 03:04:30;;;;;;;2.30;1.20;;;;;;;7.24;72.02;101964.44;4976003;28;20082;-82
2022/01/10 03:06:59;;;;;;;2.47;1.15;;;;;;;7.21;69.72;101957.41;4976925;28;20516;-86
2022/01/10 03:09:28;;;;;;;4.35;1.10;;;;;;;7.19;69.71;101956.44;4973771;28;20122;-85
2022/01/10 03:11:58;;;;;;;1.98;1.00;;;;;;;7.14;69.39;101963.88;4967791;28;20058;-87
2022/01/10 03:14:26;;;;;;;1.88;1.05;;;;;;;7.13;69.05;101976.66;4970788;28;20042;-86
2022/01/10 03:16:55;;;;;;;1.85;0.90;;;;;;;7.11;69.70;101978.25;4976340;28;20480;-88
2022/01/10 03:19:23;;;;;;;2.65;1.10;;;;;;;7.07;69.39;101991.72;4975930;28;20070;-79
2022/01/10 03:21:52;;;;;;;1.30;0.82;;;;;;;7.03;69.19;101994.88;4972518;28;20109;-85
2022/01/10 03:24:20;;;;;;;3.05;1.30;;;;;;;6.99;70.53;101998.06;4972209;28;20113;-89
2022/01/10 03:26:49;;;;;;;5.75;2.92;;;;;;;6.97;71.12;102000.53;4972917;28;20054;-88
2022/01/10 03:29:19;;;;;;;4.78;2.80;;;;;;;6.97;74.68;102007.38;4972273;28;20055;-83
2022/01/10 03:31:49;;;;;;;10.32;3.88;;;;;;;6.97;74.60;102009.94;4972302;28;20051;-84
2022/01/10 03:34:17;;;;;;;7.70;3.20;;;;;;;6.91;72.18;102003.59;4972154;28;20050;-83
2022/01/10 03:36:46;;;;;;;6.82;3.92;;;;;;;6.81;72.40;101993.50;4972101;28;20453;-83
2022/01/10 03:39:15;;;;;;;7.78;4.60;;;;;;;6.75;73.90;101987.97;4972324;28;20103;-83
2022/01/10 03:41:44;;;;;;;9.68;5.05;;;;;;;6.68;75.74;101986.66;4972095;28;20039;-84
2022/01/10 03:44:13;;;;;;;8.90;4.13;;;;;;;6.69;76.22;101988.47;4972848;28;20083;-83
2022/01/10 03:46:43;;;;;;;9.38;3.85;;;;;;;6.62;76.57;101986.28;4974562;28;20054;-84
2022/01/10 03:49:12;;;;;;;7.40;3.17;;;;;;;6.55;77.14;101989.25;4975433;28;20043;-85
2022/01/10 03:51:40;;;;;;;7.47;3.30;;;;;;;6.40;77.30;101968.56;4975126;28;20047;-83
2022/01/10 03:54:09;;;;;;;7.75;3.63;;;;;;;6.42;78.04;101971.25;4972579;28;20055;-85
2022/01/10 03:56:37;;;;;;;8.85;3.13;;;;;;;6.39;77.61;101963.31;4973367;28;20058;-84
2022/01/10 03:59:06;;;;;;;7.13;3.45;;;;;;;6.36;78.28;101950.25;4961959;28;20113;-82
2022/01/10 04:01:37;;;;;;;8.75;3.22;;;;;;;6.31;79.45;101944.81;4975333;28;20051;-86
2022/01/10 04:04:08;;;;;;;7.30;3.03;;;;;;;6.28;79.33;101945.50;4980058;28;20461;-86
2022/01/10 04:06:37;;;;;;;8.60;3.80;;;;;;;6.24;79.31;101946.09;4978709;28;20384;-83
2022/01/10 04:09:09;;;;;;;6.20;3.00;;;;;;;6.21;79.18;101945.03;4977991;28;20083;-78
2022/01/10 04:11:37;;;;;;;8.73;3.05;;;;;;;6.13;77.66;101943.59;4977273;28;20055;-80
2022/01/10 04:14:06;;;;;;;7.00;2.92;;;;;;;6.08;76.46;101954.47;4975941;28;20052;-78
2022/01/10 04:16:34;;;;;;;8.15;3.55;;;;;;;6.04;77.42;101952.47;4978663;28;20066;-83
2022/01/10 04:19:03;;;;;;;11.27;4.00;;;;;;;6.01;77.28;101952.28;4979215;28;20109;-84
2022/01/10 04:21:33;;;;;;;8.48;3.40;;;;;;;5.97;77.26;101952.84;4976835;28;20120;-82
2022/01/10 04:24:02;;;;;;;7.63;3.20;;;;;;;5.88;77.31;101954.75;4976369;28;20051;-81
2022/01/10 04:26:30;;;;;;;5.45;2.92;;;;;;;5.83;78.89;101953.56;4975799;28;20106;-79
2022/01/10 04:28:59;;;;;;;4.40;2.22;;;;;;;5.81;78.78;101955.13;4976101;28;20043;-81
2022/01/10 04:31:27;;;;;;;5.57;2.35;;;;;;;5.79;79.14;101949.00;4975553;28;20675;-82
2022/01/10 04:33:55;;;;;;;8.60;2.72;;;;;;;5.77;79.05;101960.84;4975738;28;20080;-81
2022/01/10 04:36:24;;;;;;;4.68;2.17;;;;;;;5.73;79.37;101966.59;4981294;28;20050;-78
2022/01/10 04:38:54;;;;;;;2.75;1.75;;;;;;;5.68;79.26;101958.56;4977795;28;20097;-81
2022/01/10 04:41:23;;;;;;;6.43;1.90;;;;;;;5.67;79.29;101965.34;4977898;28;20109;-87
2022/01/10 04:43:51;;;;;;;3.00;1.80;;;;;;;5.66;79.89;101963.59;4978314;28;20055;-82
2022/01/10 04:46:20;;;;;;;4.57;2.25;;;;;;;5.64;80.53;101969.41;4975951;28;20051;-78
2022/01/10 04:48:48;;;;;;;4.82;1.70;;;;;;;5.59;80.65;101961.38;4975073;28;20039;-81
2022/01/10 04:51:17;;;;;;;4.68;2.60;;;;;;;5.58;80.65;101964.72;4975813;28;20055;-82
2022/01/10 04:53:48;;;;;;;4.47;2.40;;;;;;;5.57;80.67;101974.91;4975170;28;20058;-80
2022/01/10 04:56:19;;;;;;;4.10;2.67;;;;;;;5.52;81.47;101972.03;4975900;28;20431;-80
2022/01/10 04:58:49;;;;;;;5.28;2.80;;;;;;;5.50;82.43;101975.25;4974772;28;20051;-76
2022/01/10 05:01:19;;;;;;;3.85;2.35;;;;;;;5.44;82.14;101968.91;4975344;28;20082;-78
2022/01/10 05:03:47;;;;;;;4.05;2.08;;;;;;;5.43;82.32;101973.97;4974503;28;20078;-78
2022/01/10 05:06:16;;;;;;;3.65;1.63;;;;;;;5.38;82.17;101975.28;4967603;28;20055;-76
2022/01/10 05:08:44;;;;;;;4.47;2.40;;;;;;;5.32;82.48;101985.16;4971615;28;20053;-78
2022/01/10 05:11:13;;;;;;;4.07;1.88;;;;;;;5.28;82.84;101978.00;4974720;28;20126;-79
2022/01/10 05:13:43;;;;;;;5.10;2.15;;;;;;;5.24;83.04;101980.38;4975191;28;20083;-77
2022/01/10 05:16:12;;;;;;;4.32;1.90;;;;;;;5.23;83.39;101975.13;4976379;28;20114;-79
2022/01/10 05:18:41;;;;;;;3.92;1.80;;;;;;;5.18;83.18;101991.88;4975482;28;20420;-77
2022/01/10 05:21:12;;;;;;;5.63;2.58;;;;;;;5.14;83.73;102000.13;4973927;28;20504;-78
2022/01/10 05:23:40;;;;;;;6.50;2.33;;;;;;;5.08;84.84;101998.00;4973833;28;20050;-77
2022/01/10 05:26:09;;;;;;;3.78;2.03;;;;;;;5.05;85.31;102008.03;4974688;28;20503;-77
2022/01/10 05:28:37;;;;;;;4.55;2.22;;;;;;;5.00;84.94;102024.78;4974853;28;20500;-77
2022/01/10 05:31:07;;;;;;;7.22;2.17;;;;;;;4.96;88.31;102020.22;4974781;28;20050;-81
2022/01/10 05:33:36;;;;;;;3.95;2.03;;;;;;;4.86;91.46;102028.03;4974560;28;20062;-77
2022/01/10 05:36:04;;;;;;;5.40;2.17;;;;;;;4.82;91.19;102038.03;4974919;28;20055;-78
2022/01/10 05:38:34;;;;;;;3.55;2.20;;;;;;;4.83;91.81;102027.03;4976030;28;20046;-77
2022/01/10 05:41:02;;;;;;;3.53;2.05;;;;;;;4.84;92.15;102020.22;4976670;28;20059;-79
2022/01/10 05:43:31;;;;;;;3.63;1.70;;;;;;;4.78;91.58;102012.94;4977167;28;20450;-78
2022/01/10 05:46:00;;;;;;;3.78;1.92;;;;;;;4.77;91.94;102024.00;4976216;28;20074;-78
2022/01/10 05:48:31;;;;;;;5.90;2.67;;;;;;;4.73;91.37;102027.13;4975611;28;20059;-78
2022/01/10 05:50:59;;;;;;;8.32;1.92;;;;;;;4.70;91.55;102021.78;4975839;28;20043;-77
2022/01/10 05:53:28;;;;;;;6.47;2.10;;;;;;;4.67;90.78;102021.53;4975069;28;20059;-81
2022/01/10 05:55:56;;;;;;;4.50;2.53;;;;;;;4.64;91.32;102023.88;4975018;28;20054;-77
2022/01/10 05:58:26;;;;;;;5.53;2.53;;;;;;;4.60;91.38;102011.59;4974134;28;20042;-76
2022/01/10 06:00:54;;;;;;;5.20;2.42;;;;;;;4.59;91.75;102012.41;4974617;28;20054;-77
2022/01/10 06:03:23;;;;;;;7.85;3.05;;;;;;;4.57;91.65;102016.53;4973759;28;20539;-77
2022/01/10 06:05:53;;;;;;;6.55;2.95;;;;;;;4.54;92.10;102013.75;4974445;28;20055;-79
2022/01/10 06:08:22;;;;;;;9.20;3.22;;;;;;;4.53;92.93;102001.69;4974308;28;20054;-77
2022/01/10 06:10:50;;;;;;;9.30;4.07;;;;;;;4.52;92.25;101999.91;4973662;28;20086;-75
2022/01/10 06:13:18;;;;;;;6.38;3.92;;;;;;;4.50;91.59;102007.47;4972911;28;20057;-78
2022/01/10 06:15:47;;;;;;;10.80;4.43;;;;;;;4.46;91.48;101999.44;4974625;28;20062;-77
2022/01/10 06:18:15;;;;;;;8.43;3.55;;;;;;;4.44;91.78;102006.13;4975824;28;20058;-77
2022/01/10 06:20:44;;;;;;;5.88;4.03;;;;;;;4.43;91.13;102014.63;4973953;28;20078;-77
2022/01/10 06:23:14;;;;;;;6.82;3.35;;;;;;;4.41;92.09;102017.06;4973265;28;20073;-79
2022/01/10 06:25:43;;;;;;;8.27;3.15;;;;;;;4.41;92.37;102017.06;4973486;28;20082;-79
2022/01/10 06:28:11;;;;;;;10.93;3.22;;;;;;;4.40;92.62;102018.72;4955775;28;20083;-82
2022/01/10 06:30:40;;;;;;;11.73;3.38;;;;;;;4.39;92.31;102023.72;4964152;28;20055;-82
2022/01/10 06:33:08;;;;;;;5.78;1.88;;;;;;;4.38;92.56;102033.09;4969805;28;20324;-83
2022/01/10 06:35:37;;;;;;;2.60;1.52;;;;;;;4.38;92.46;102045.91;4966958;28;20051;-83
2022/01/10 06:38:05;;;;;;;5.00;1.50;;;;;;;4.38;92.74;102042.47;4972931;28;20078;-82
2022/01/10 06:40:36;;;;;;;3.78;2.58;;;;;;;4.39;93.26;102045.13;4973680;28;20587;-83
2022/01/10 06:43:05;;;;;;;4.88;2.20;;;;;;;4.37;92.92;102056.03;4972851;28;20105;-83
2022/01/10 06:45:34;;;;;;;4.90;2.17;;;;;;;4.35;92.88;102055.03;4973219;28;20047;-83
2022/01/10 06:48:02;;;;;;;5.57;2.60;;;;;;;4.34;93.20;102055.81;4973074;28;20086;-82
2022/01/10 06:50:31;;;;;;;5.75;2.88;;;;;;;4.32;93.02;102058.25;4973279;28;20051;-83
2022/01/10 06:53:00;;;;;;;2.80;1.60;;;;;;;4.29;93.85;102057.16;4971798;28;20051;-81
2022/01/10 06:55:29;;;;;;;8.90;2.20;;;;;;;4.28;93.52;102070.72;4968253;28;20059;-81
2022/01/10 06:58:00;;;;;;;4.97;2.03;;;;;;;4.25;93.95;102060.25;4964058;28;20050;-82
2022/01/10 07:00:29;;;;;;;3.25;1.45;;;;;;;4.24;94.64;102068.69;4971904;28;20063;-82
2022/01/10 07:02:57;;;;;;;2.22;1.33;;;;;;;4.23;95.41;102061.78;4971632;28;20047;-81
2022/01/10 07:05:26;;;;;;;6.85;2.70;;;;;;;4.23;95.41;102077.16;4972339;28;20145;-82
2022/01/10 07:07:54;;;;;;;4.72;1.48;;;;;;;4.20;95.39;102072.69;4973454;28;20051;-82
2022/01/10 07:10:23;;;;;;;2.25;1.60;;;;;;;4.18;95.38;102074.25;4972737;28;20074;-83
2022/01/10 07:12:52;;;;;;;3.10;1.30;;;;;;;4.19;94.55;102083.72;4959168;28;20117;-82
2022/01/10 07:15:25;;;;;;;2.63;1.17;;;;;;;4.16;95.29;102075.81;4972447;28;20047;-82
2022/01/10 07:17:53;;;;;;;;;;;;;;;4.16;94.96;102073.25;4976456;28;20054;-83
2022/01/10 07:20:22;;;;;;;2.78;1.40;;;;;;;4.15;94.66;102071.47;4972691;28;19977;-84
2022/01/10 07:22:50;;;;;;;2.28;1.20;;;;;;;4.12;95.05;102069.56;4971940;28;20053;-83
2022/01/10 07:25:19;;;;;;;2.15;1.13;;;;;;;4.09;95.32;102082.13;4974061;28;20051;-83
2022/01/10 07:27:48;;;;;;;3.53;1.00;;;;;;;4.06;95.58;102079.34;4973063;28;20492;-83
2022/01/10 07:30:16;;;;;;;1.35;1.08;;;;;;;4.04;94.75;102085.13;4973388;28;20109;-83
2022/01/10 07:32:46;;;;;;;1.75;0.90;;;;;;;4.00;95.25;102094.22;4972701;28;20043;-81
2022/01/10 07:35:15;;;;;;;4.20;1.45;;;;;;;3.98;96.63;102094.09;4972483;28;20055;-81
2022/01/10 07:37:46;;;;;;;2.50;1.55;;;;;;;3.98;97.48;102095.75;4972710;28;20054;-81
2022/01/10 07:40:15;;;;;;;3.33;1.75;;;;;;;3.98;97.37;102106.91;4971475;28;20051;-82
2022/01/10 07:42:44;;;;;;;3.83;1.98;;;;;;;3.99;98.12;102106.13;4972121;28;20057;-82
2022/01/10 07:45:13;;;;;;;1.73;1.20;;;;;;;3.99;97.46;102106.13;4972532;28;20106;-81
2022/01/10 07:47:42;;;;;;;3.00;1.75;;;;;;;3.98;97.41;102098.31;4972190;28;20062;-82
2022/01/10 07:50:13;;;;;;;4.65;1.88;;;;;;;3.95;96.14;102087.84;4972872;28;20078;-82
2022/01/10 07:52:41;;;;;;;1.80;1.23;;;;;;;3.90;95.65;102092.63;4971969;28;20051;-81
2022/01/10 07:55:11;;;;;;;2.40;1.35;;;;;;;3.84;96.68;102104.94;4972289;28;20055;-82
2022/01/10 07:57:39;;;;;;;2.28;1.33;;;;;;;3.81;97.89;102106.38;4969996;28;20062;-82
2022/01/10 08:00:09;;;;;;;2.85;1.20;;;;;;;3.79;96.63;102124.16;4971994;28;20120;-79
2022/01/10 08:02:37;;;;;;;3.40;1.25;;;;;;;3.77;98.59;102124.03;4971806;28;20062;-80
2022/01/10 08:05:08;;;;;;;3.78;1.08;;;;;;;3.77;98.01;102126.59;4973956;28;20055;-80
2022/01/10 08:07:38;;;;;;;2.60;1.20;;;;;;;3.76;98.09;102129.06;4971770;28;20129;-79
2022/01/10 08:10:08;;;;;;;4.47;1.05;;;;;;;3.73;97.53;102129.72;4972855;28;20109;-79
2022/01/10 08:12:36;;;;;;;2.75;1.00;;;;;;;3.67;97.99;102124.09;4971543;28;20082;-80
2022/01/10 08:15:08;;;;;;;2.70;1.27;;;;;;;3.67;99.19;102120.66;4971809;28;20101;-82
2022/01/10 08:17:37;;;;;;;4.07;1.35;;;;;;;3.66;99.63;102112.06;4972946;28;20563;-79
2022/01/10 08:20:06;;;;;;;4.22;1.80;;;;;;;3.63;100.00;102113.50;4974278;28;20555;-81
2022/01/10 08:22:37;;;;;;;4.03;1.10;;;;;;;3.62;100.00;102119.38;4971927;28;20047;-80
2022/01/10 08:25:07;;;;;;;1.92;1.10;;;;;;;3.56;99.81;102118.13;4972058;28;20084;-81
2022/01/10 08:27:36;;;;;;;2.92;1.40;;;;;;;3.55;99.26;102113.78;4972291;28;20098;-81
2022/01/10 08:30:05;;;;;;;5.93;2.00;;;;;;;3.51;98.77;102111.75;4958899;28;20133;-81
2022/01/10 08:32:34;;;;;;;5.78;3.03;;;;;;;3.46;99.50;102100.25;4972078;28;20047;-82
2022/01/10 08:35:03;;;;;;;8.90;3.83;;;;;;;3.45;99.46;102101.03;4971696;28;20113;-81
2022/01/10 08:37:32;;;;;;;7.97;3.10;;;;;;;3.43;99.69;102107.69;4971769;28;20109;-81
2022/01/10 08:40:02;;;;;;;8.55;3.60;;;;;;;3.43;100.00;102096.56;4972339;28;20089;-81
2022/01/10 08:42:31;;;;;;;11.02;3.55;;;;;;;3.43;100.00;102097.44;4971573;28;20135;-81
2022/01/10 08:44:59;;;;;;;8.63;3.50;;;;;;;3.44;99.87;102106.03;4972159;28;20083;-81
2022/01/10 08:47:28;;;;;;;8.30;2.75;;;;;;;3.43;99.65;102100.00;4971527;28;20137;-81
2022/01/10 08:49:57;;;;;;;5.53;2.25;;;;;;;3.42;99.50;102090.56;4971305;28;20114;-82
2022/01/10 08:52:28;;;;;;;3.50;2.17;;;;;;;3.40;98.82;102097.22;4971565;28;20047;-81
2022/01/10 08:54:57;;;;;;;6.05;2.80;;;;;;;3.39;99.13;102094.50;4975303;28;20047;-82
2022/01/10 08:57:27;;;;;;;5.90;1.60;;;;;;;3.36;99.46;102098.63;4974779;28;20129;-80
2022/01/10 08:59:56;;;;;;;2.55;1.55;;;;;;;3.34;99.33;102105.31;4975278;28;20133;-81
2022/01/10 09:02:24;;;;;;;4.20;1.65;;;;;;;3.34;100.00;102109.50;4974412;28;20735;-82
2022/01/10 09:04:53;;;;;;;3.20;1.30;;;;;;;3.32;98.77;102116.16;4974819;28;20078;-81
2022/01/10 09:07:21;;;;;;;2.83;1.23;;;;;;;3.28;98.14;102119.25;4974248;28;20104;-81
2022/01/10 09:09:50;;;;;;;5.03;1.77;;;;;;;3.26;97.90;102128.47;4974548;28;20054;-82
2022/01/10 09:12:18;;;;;;;1.90;1.20;;;;;;;3.24;98.00;102135.13;4974569;28;20130;-81
2022/01/10 09:14:48;;;;;;;4.00;1.42;;;;;;;3.10;99.46;102131.44;4974597;28;20083;-82
2022/01/10 09:17:17;;;;;;;3.20;1.58;;;;;;;3.01;100.00;102136.69;4975306;28;20046;-81
2022/01/10 09:19:46;;;;;;;2.83;1.67;;;;;;;2.99;100.00;102143.34;4977769;28;20050;-80
2022/01/10 09:22:14;;;;;;;2.50;1.30;;;;;;;3.02;100.00;102133.34;4975177;28;20493;-80
2022/01/10 09:24:46;;;;;;;3.58;2.03;;;;;;;3.02;100.00;102133.34;4975815;28;20070;-81
2022/01/10 09:27:15;;;;;;;3.17;1.85;;;;;;;3.03;100.00;102130.03;4976642;28;20110;-81
2022/01/10 09:29:45;;;;;;;2.80;1.33;;;;;;;3.05;100.00;102142.97;4974595;28;20057;-80
2022/01/10 09:32:15;;;;;;;4.03;1.70;;;;;;;3.03;100.00;102140.28;4975302;28;20051;-81
2022/01/10 09:34:43;;;;;;;5.80;1.50;;;;;;;3.01;100.00;102146.03;4975130;28;20047;-79
2022/01/10 09:37:12;;;;;;;3.17;1.75;;;;;;;3.01;100.00;102140.94;4974500;28;20054;-80
2022/01/10 09:39:41;;;;;;;3.85;1.38;;;;;;;3.00;100.00;102140.03;4974693;28;20050;-80
2022/01/10 09:42:09;;;;;;;4.43;1.88;;;;;;;2.96;100.00;102138.00;4974377;28;20073;-81
2022/01/10 09:44:38;;;;;;;5.82;1.95;;;;;;;2.98;100.00;102146.69;4973884;28;20097;-81
2022/01/10 09:47:06;;;;;;;4.15;2.00;;;;;;;2.98;100.00;102156.91;4966478;28;20129;-82
2022/01/10 09:49:37;;;;;;;5.85;2.45;;;;;;;2.98;100.00;102156.00;4969288;28;20109;-79
2022/01/10 09:52:06;;;;;;;7.70;2.90;;;;;;;2.97;100.00;102150.00;4974240;28;20042;-79
2022/01/10 09:54:35;;;;;;;4.80;2.63;;;;;;;2.94;100.00;102144.63;4974025;28;20050;-80
2022/01/10 09:57:04;;;;;;;4.45;2.75;;;;;;;2.95;100.00;102143.84;4973802;28;20078;-80
2022/01/10 09:59:32;;;;;;;4.90;1.95;;;;;;;2.95;100.00;102141.28;4973848;28;20046;-79
2022/01/10 10:02:01;;;;;;;2.88;1.75;;;;;;;2.93;100.00;102133.53;4973788;28;20058;-79
2022/01/10 10:04:29;;;;;;;5.50;1.60;;;;;;;2.93;100.00;102130.03;4973020;28;20109;-80
2022/01/10 10:07:01;;;;;;;4.57;2.42;;;;;;;2.87;100.00;102121.91;4975262;28;20051;-79
2022/01/10 10:09:31;;;;;;;6.00;1.83;;;;;;;2.89;100.00;102130.59;4973853;28;20101;-80
2022/01/10 10:12:00;;;;;;;5.80;2.00;;;;;;;2.87;100.00;102121.91;4973367;28;20082;-80
2022/01/10 10:14:28;;;;;;;4.28;1.92;;;;;;;2.85;100.00;102126.88;4973468;28;20039;-79
2022/01/10 10:17:06;;;;;;;6.93;2.33;;;;;;;2.86;100.00;102125.19;4973869;28;20113;-79
2022/01/10 10:19:34;;;;;;;5.32;2.00;;;;;;;2.85;100.00;102129.44;4973636;28;20141;-80
2022/01/10 10:22:05;;;;;;;3.65;1.98;;;;;;;2.82;100.00;102113.84;4976834;28;20098;-80
2022/01/10 10:24:33;;;;;;;3.80;1.80;;;;;;;2.86;100.00;102130.31;4973800;28;20226;-79
2022/01/10 10:27:04;;;;;;;3.72;1.67;;;;;;;2.87;100.00;102135.56;4973886;28;20055;-79
2022/01/10 10:29:32;;;;;;;4.35;1.80;;;;;;;2.87;100.00;102129.56;4973339;28;20542;-79
2022/01/10 10:32:02;;;;;;;4.07;1.50;;;;;;;2.86;100.00;102144.03;4959746;28;20085;-78
2022/01/10 10:34:33;;;;;;;3.00;1.65;;;;;;;2.87;100.00;102143.22;4973236;28;20043;-79
2022/01/10 10:37:05;;;;;;;3.10;1.77;;;;;;;2.88;100.00;102151.78;4973450;28;20058;-79
2022/01/10 10:39:36;;;;;;;2.92;1.77;;;;;;;2.87;100.00;102153.47;4973093;28;20046;-79
2022/01/10 10:42:08;;;;;;;2.53;1.45;;;;;;;2.87;100.00;102155.13;4973275;28;20086;-79
2022/01/10 10:44:36;;;;;;;2.83;1.48;;;;;;;2.81;100.00;102152.06;4972971;28;20055;-80
2022/01/10 10:47:06;;;;;;;3.97;1.50;;;;;;;2.79;100.00;102164.69;4973159;28;20544;-80
2022/01/10 10:49:38;;;;;;;2.08;1.13;;;;;;;2.80;100.00;102160.50;4973135;28;20427;-79
2022/01/10 10:52:10;;;;;;;1.40;1.00;;;;;;;2.79;100.00;102169.81;4972895;28;20651;-80
2022/01/10 10:54:40;;;;;;;4.30;1.52;;;;;;;2.77;100.00;102170.44;4967456;28;20044;-79
2022/01/10 10:57:10;;;;;;;3.47;1.23;;;;;;;2.78;100.00;102177.38;4972530;28;20054;-79
2022/01/10 10:59:43;;;;;;;6.00;1.15;;;;;;;2.79;100.00;102176.59;4972648;28;20105;-79
2022/01/10 11:02:13;;;;;;;6.82;1.38;;;;;;;2.76;100.00;102174.69;4972640;28;20555;-79
2022/01/10 11:04:43;;;;;;;2.00;1.15;;;;;;;2.75;100.00;102174.53;4972511;28;20046;-79
2022/01/10 11:07:13;;;;;;;4.68;2.28;;;;;;;2.75;100.00;102172.91;4974415;28;20104;-79
2022/01/10 11:09:43;;;;;;;2.47;1.02;;;;;;;2.75;100.00;102169.44;4970758;28;20047;-79
2022/01/10 11:12:16;;;;;;;3.47;1.35;;;;;;;2.74;100.00;102165.97;4961438;28;20046;-79
2022/01/10 11:14:45;;;;;;;3.50;1.55;;;;;;;2.75;100.00;102159.19;4972877;28;20054;-79
2022/01/10 11:17:19;;;;;;;1.63;0.75;;;;;;;2.69;100.00;102137.47;4971992;28;20101;-80
2022/01/10 11:20:11;;;;;;;1.67;1.02;;;;;;;2.78;100.00;102156.91;4959768;28;20053;-79
2022/01/10 11:22:43;;;;;;;2.08;1.08;;;;;;;2.81;100.00;102157.16;4973774;28;20285;-80
2022/01/10 11:25:24;;;;;;;3.22;1.45;;;;;;;2.83;100.00;102150.53;4974878;28;20047;-80
2022/01/10 11:27:53;;;;;;;4.22;0.93;;;;;;;2.83;100.00;102158.19;4973096;28;20050;-79
2022/01/10 11:30:28;;;;;;;4.53;1.48;;;;;;;2.84;100.00;102154.84;4966471;28;20465;-80
2022/01/10 11:33:02;;;;;;;0.80;0.60;;;;;;;2.83;100.00;102156.53;4972788;28;20069;-79
2022/01/10 11:35:33;;;;;;;1.88;1.10;;;;;;;2.82;100.00;102152.19;4972966;28;20061;-80
2022/01/10 11:38:22;;;;;;;2.15;1.02;;;;;;;2.84;100.00;102150.66;4971988;28;20124;-80
2022/01/10 11:40:52;;;;;;;2.58;1.15;;;;;;;2.85;100.00;102154.09;4973036;28;20051;-79
2022/01/10 11:43:42;;;;;;;5.38;1.15;;;;;;;2.87;100.00;102155.13;4959198;28;20051;-78
2022/01/10 11:46:14;;;;;;;1.30;0.93;;;;;;;2.84;100.00;102157.41;4972559;28;20090;-78
2022/01/10 11:48:51;;;;;;;2.03;1.17;;;;;;;2.83;100.00;102161.63;4972066;28;20463;-79
2022/01/10 11:51:23;;;;;;;4.82;0.90;;;;;;;2.84;100.00;102158.31;4971355;28;20050;-80